sensor_id;sensor_type;location;lat;lon;timestamp;P1;durP1;ratioP1;P2;durP2;ratioP2
73296;SDS011;61524;50.938;11.396;2023-08-17T00:01:22;13.70;;;9.02;;
73296;SDS011;61524;50.938;11.396;2023-08-17T00:03:48;14.15;;;8.07;;
73296;SDS011;61524;50.938;11.396;2023-08-17T00:06:13;10.40;;;6.93;;
73296;SDS011;61524;50.938;11.396;2023-08-17T00:08:38;8.57;;;5.87;;
73296;SDS011;61524;50.938;11.396;2023-08-17T00:11:03;9.10;;;5.43;;
73296;SDS011;61524;50.938;11.396;2023-08-17T00:13:29;6.60;;;3.60;;
73296;SDS011;61524;50.938;11.396;2023-08-17T00:15:54;8.20;;;3.43;;
73296;SDS011;61524;50.938;11.396;2023-08-17T00:18:19;4.17;;;2.40;;
73296;SDS011;61524;50.938;11.396;2023-08-17T00:20:44;4.00;;;2.10;;
73296;SDS011;61524;50.938;11.396;2023-08-17T00:23:10;2.95;;;1.77;;
73296;SDS011;61524;50.938;11.396;2023-08-17T00:25:35;4.05;;;2.47;;
73296;SDS011;61524;50.938;11.396;2023-08-17T00:28:01;3.70;;;2.07;;
73296;SDS011;61524;50.938;11.396;2023-08-17T00:30:26;4.43;;;1.92;;
73296;SDS011;61524;50.938;11.396;2023-08-17T00:32:51;3.83;;;1.75;;
73296;SDS011;61524;50.938;11.396;2023-08-17T00:35:17;2.95;;;1.60;;
73296;SDS011;61524;50.938;11.396;2023-08-17T00:37:42;3.03;;;1.40;;
73296;SDS011;61524;50.938;11.396;2023-08-17T00:40:07;3.57;;;1.40;;
73296;SDS011;61524;50.938;11.396;2023-08-17T00:42:33;2.63;;;1.20;;
73296;SDS011;61524;50.938;11.396;2023-08-17T00:44:58;3.33;;;1.43;;
73296;SDS011;61524;50.938;11.396;2023-08-17T00:47:23;4.05;;;1.48;;
73296;SDS011;61524;50.938;11.396;2023-08-17T00:49:49;4.05;;;1.30;;
73296;SDS011;61524;50.938;11.396;2023-08-17T00:52:14;3.10;;;1.33;;
73296;SDS011;61524;50.938;11.396;2023-08-17T00:54:40;4.13;;;1.17;;
73296;SDS011;61524;50.938;11.396;2023-08-17T00:57:05;2.72;;;1.13;;
73296;SDS011;61524;50.938;11.396;2023-08-17T00:59:31;2.17;;;1.13;;
73296;SDS011;61524;50.938;11.396;2023-08-17T01:01:57;4.95;;;1.20;;
73296;SDS011;61524;50.938;11.396;2023-08-17T01:04:22;2.83;;;0.98;;
73296;SDS011;61524;50.938;11.396;2023-08-17T01:06:47;3.77;;;1.40;;
73296;SDS011;61524;50.938;11.396;2023-08-17T01:09:13;5.40;;;1.42;;
73296;SDS011;61524;50.938;11.396;2023-08-17T01:14:35;3.60;;;1.40;;
73296;SDS011;61524;50.938;11.396;2023-08-17T01:17:11;7.47;;;1.85;;
73296;SDS011;61524;50.938;11.396;2023-08-17T01:19:37;8.07;;;2.30;;
73296;SDS011;61524;50.938;11.396;2023-08-17T01:22:03;6.95;;;1.80;;
73296;SDS011;61524;50.938;11.396;2023-08-17T01:24:30;10.68;;;2.22;;
73296;SDS011;61524;50.938;11.396;2023-08-17T01:26:55;9.40;;;1.97;;
73296;SDS011;61524;50.938;11.396;2023-08-17T01:29:20;11.93;;;2.83;;
73296;SDS011;61524;50.938;11.396;2023-08-17T01:34:12;7.63;;;1.90;;
73296;SDS011;61524;50.938;11.396;2023-08-17T01:36:43;6.57;;;2.22;;
73296;SDS011;61524;50.938;11.396;2023-08-17T01:39:11;8.60;;;1.60;;
73296;SDS011;61524;50.938;11.396;2023-08-17T01:41:38;5.32;;;1.58;;
73296;SDS011;61524;50.938;11.396;2023-08-17T01:44:04;6.78;;;1.83;;
73296;SDS011;61524;50.938;11.396;2023-08-17T01:46:30;5.60;;;2.00;;
73296;SDS011;61524;50.938;11.396;2023-08-17T01:48:57;7.38;;;1.63;;
73296;SDS011;61524;50.938;11.396;2023-08-17T01:51:22;4.17;;;1.77;;
73296;SDS011;61524;50.938;11.396;2023-08-17T01:53:48;7.25;;;2.05;;
73296;SDS011;61524;50.938;11.396;2023-08-17T01:56:13;4.53;;;1.48;;
73296;SDS011;61524;50.938;11.396;2023-08-17T01:58:39;4.78;;;1.42;;
73296;SDS011;61524;50.938;11.396;2023-08-17T02:01:04;4.37;;;1.83;;
73296;SDS011;61524;50.938;11.396;2023-08-17T02:03:29;6.50;;;1.40;;
73296;SDS011;61524;50.938;11.396;2023-08-17T02:05:58;5.35;;;1.52;;
73296;SDS011;61524;50.938;11.396;2023-08-17T02:08:23;4.00;;;1.70;;
73296;SDS011;61524;50.938;11.396;2023-08-17T02:10:49;4.30;;;1.50;;
73296;SDS011;61524;50.938;11.396;2023-08-17T02:13:15;4.87;;;1.80;;
73296;SDS011;61524;50.938;11.396;2023-08-17T02:15:41;4.70;;;1.63;;
73296;SDS011;61524;50.938;11.396;2023-08-17T02:18:06;4.20;;;1.27;;
73296;SDS011;61524;50.938;11.396;2023-08-17T02:20:32;4.30;;;1.52;;
73296;SDS011;61524;50.938;11.396;2023-08-17T02:22:57;3.40;;;1.30;;
73296;SDS011;61524;50.938;11.396;2023-08-17T02:25:22;8.38;;;1.60;;
73296;SDS011;61524;50.938;11.396;2023-08-17T02:27:47;3.83;;;1.57;;
73296;SDS011;61524;50.938;11.396;2023-08-17T02:30:13;3.33;;;1.47;;
73296;SDS011;61524;50.938;11.396;2023-08-17T02:32:38;3.75;;;1.42;;
73296;SDS011;61524;50.938;11.396;2023-08-17T02:35:04;5.55;;;1.50;;
73296;SDS011;61524;50.938;11.396;2023-08-17T02:37:29;5.38;;;1.48;;
73296;SDS011;61524;50.938;11.396;2023-08-17T02:39:54;4.20;;;1.30;;
73296;SDS011;61524;50.938;11.396;2023-08-17T02:42:19;2.60;;;1.23;;
73296;SDS011;61524;50.938;11.396;2023-08-17T02:44:45;5.10;;;1.47;;
73296;SDS011;61524;50.938;11.396;2023-08-17T02:47:10;6.60;;;1.40;;
73296;SDS011;61524;50.938;11.396;2023-08-17T02:49:35;4.60;;;1.58;;
73296;SDS011;61524;50.938;11.396;2023-08-17T02:52:01;5.10;;;1.30;;
73296;SDS011;61524;50.938;11.396;2023-08-17T02:54:26;4.03;;;1.30;;
73296;SDS011;61524;50.938;11.396;2023-08-17T02:56:51;5.20;;;1.27;;
73296;SDS011;61524;50.938;11.396;2023-08-17T02:59:17;5.35;;;1.33;;
73296;SDS011;61524;50.938;11.396;2023-08-17T03:01:43;5.03;;;1.47;;
73296;SDS011;61524;50.938;11.396;2023-08-17T03:04:08;3.60;;;0.90;;
73296;SDS011;61524;50.938;11.396;2023-08-17T03:06:33;3.87;;;2.13;;
73296;SDS011;61524;50.938;11.396;2023-08-17T03:08:59;3.03;;;0.80;;
73296;SDS011;61524;50.938;11.396;2023-08-17T03:11:24;2.50;;;0.87;;
73296;SDS011;61524;50.938;11.396;2023-08-17T03:13:49;2.27;;;0.90;;
73296;SDS011;61524;50.938;11.396;2023-08-17T03:16:14;1.77;;;0.87;;
73296;SDS011;61524;50.938;11.396;2023-08-17T03:18:40;2.08;;;0.73;;
73296;SDS011;61524;50.938;11.396;2023-08-17T03:21:06;3.67;;;0.90;;
73296;SDS011;61524;50.938;11.396;2023-08-17T03:23:32;2.80;;;0.90;;
73296;SDS011;61524;50.938;11.396;2023-08-17T03:25:57;3.88;;;1.20;;
73296;SDS011;61524;50.938;11.396;2023-08-17T03:28:22;4.10;;;1.30;;
73296;SDS011;61524;50.938;11.396;2023-08-17T03:30:48;2.17;;;0.95;;
73296;SDS011;61524;50.938;11.396;2023-08-17T03:33:13;2.07;;;1.10;;
73296;SDS011;61524;50.938;11.396;2023-08-17T03:35:39;2.10;;;0.90;;
73296;SDS011;61524;50.938;11.396;2023-08-17T03:38:04;2.50;;;1.00;;
73296;SDS011;61524;50.938;11.396;2023-08-17T03:40:29;2.97;;;1.17;;
73296;SDS011;61524;50.938;11.396;2023-08-17T03:42:55;3.75;;;1.13;;
73296;SDS011;61524;50.938;11.396;2023-08-17T03:45:20;4.03;;;1.13;;
73296;SDS011;61524;50.938;11.396;2023-08-17T03:47:45;3.60;;;1.52;;
73296;SDS011;61524;50.938;11.396;2023-08-17T03:50:10;3.37;;;1.37;;
73296;SDS011;61524;50.938;11.396;2023-08-17T03:52:36;2.92;;;1.00;;
73296;SDS011;61524;50.938;11.396;2023-08-17T03:55:01;5.50;;;1.47;;
73296;SDS011;61524;50.938;11.396;2023-08-17T03:57:26;4.65;;;1.30;;
73296;SDS011;61524;50.938;11.396;2023-08-17T03:59:52;5.75;;;1.58;;
73296;SDS011;61524;50.938;11.396;2023-08-17T04:02:17;3.07;;;1.50;;
73296;SDS011;61524;50.938;11.396;2023-08-17T04:04:42;4.73;;;1.70;;
73296;SDS011;61524;50.938;11.396;2023-08-17T04:07:07;4.40;;;1.67;;
73296;SDS011;61524;50.938;11.396;2023-08-17T04:09:33;4.63;;;1.80;;
73296;SDS011;61524;50.938;11.396;2023-08-17T04:11:58;6.15;;;1.92;;
73296;SDS011;61524;50.938;11.396;2023-08-17T04:14:24;3.88;;;1.77;;
73296;SDS011;61524;50.938;11.396;2023-08-17T04:16:49;5.28;;;1.80;;
73296;SDS011;61524;50.938;11.396;2023-08-17T04:19:14;3.13;;;1.60;;
73296;SDS011;61524;50.938;11.396;2023-08-17T04:21:40;5.47;;;1.77;;
73296;SDS011;61524;50.938;11.396;2023-08-17T04:24:05;3.43;;;1.87;;
73296;SDS011;61524;50.938;11.396;2023-08-17T04:26:30;3.90;;;1.70;;
73296;SDS011;61524;50.938;11.396;2023-08-17T04:28:56;3.53;;;1.65;;
73296;SDS011;61524;50.938;11.396;2023-08-17T04:31:21;4.77;;;1.67;;
73296;SDS011;61524;50.938;11.396;2023-08-17T04:33:46;5.57;;;1.67;;
73296;SDS011;61524;50.938;11.396;2023-08-17T04:36:11;3.40;;;1.60;;
73296;SDS011;61524;50.938;11.396;2023-08-17T04:38:37;4.13;;;1.60;;
73296;SDS011;61524;50.938;11.396;2023-08-17T04:41:02;4.17;;;1.57;;
73296;SDS011;61524;50.938;11.396;2023-08-17T04:43:28;4.30;;;1.63;;
73296;SDS011;61524;50.938;11.396;2023-08-17T04:45:53;5.10;;;2.53;;
73296;SDS011;61524;50.938;11.396;2023-08-17T04:48:18;4.10;;;1.73;;
73296;SDS011;61524;50.938;11.396;2023-08-17T04:50:44;5.50;;;2.07;;
73296;SDS011;61524;50.938;11.396;2023-08-17T04:53:09;7.07;;;2.03;;
73296;SDS011;61524;50.938;11.396;2023-08-17T04:55:34;4.50;;;2.20;;
73296;SDS011;61524;50.938;11.396;2023-08-17T04:58:00;6.10;;;1.57;;
73296;SDS011;61524;50.938;11.396;2023-08-17T05:00:25;3.50;;;1.60;;
73296;SDS011;61524;50.938;11.396;2023-08-17T05:02:53;5.30;;;1.67;;
73296;SDS011;61524;50.938;11.396;2023-08-17T05:05:18;4.25;;;2.03;;
73296;SDS011;61524;50.938;11.396;2023-08-17T05:07:44;4.57;;;1.50;;
73296;SDS011;61524;50.938;11.396;2023-08-17T05:10:09;4.27;;;1.63;;
73296;SDS011;61524;50.938;11.396;2023-08-17T05:12:34;3.97;;;1.90;;
73296;SDS011;61524;50.938;11.396;2023-08-17T05:15:00;3.87;;;1.80;;
73296;SDS011;61524;50.938;11.396;2023-08-17T05:17:25;7.40;;;2.13;;
73296;SDS011;61524;50.938;11.396;2023-08-17T05:19:50;3.70;;;1.70;;
73296;SDS011;61524;50.938;11.396;2023-08-17T05:22:16;3.83;;;1.80;;
73296;SDS011;61524;50.938;11.396;2023-08-17T05:24:42;3.92;;;1.98;;
73296;SDS011;61524;50.938;11.396;2023-08-17T05:27:07;4.70;;;1.70;;
73296;SDS011;61524;50.938;11.396;2023-08-17T05:29:33;5.82;;;2.13;;
73296;SDS011;61524;50.938;11.396;2023-08-17T05:31:58;5.03;;;2.33;;
73296;SDS011;61524;50.938;11.396;2023-08-17T05:34:23;4.22;;;2.05;;
73296;SDS011;61524;50.938;11.396;2023-08-17T05:36:49;3.80;;;2.20;;
73296;SDS011;61524;50.938;11.396;2023-08-17T05:39:14;4.27;;;2.20;;
73296;SDS011;61524;50.938;11.396;2023-08-17T05:41:39;5.87;;;2.30;;
73296;SDS011;61524;50.938;11.396;2023-08-17T05:44:05;4.95;;;2.17;;
73296;SDS011;61524;50.938;11.396;2023-08-17T05:46:32;4.22;;;2.28;;
73296;SDS011;61524;50.938;11.396;2023-08-17T05:48:57;4.60;;;2.55;;
73296;SDS011;61524;50.938;11.396;2023-08-17T05:53:49;5.30;;;2.30;;
73296;SDS011;61524;50.938;11.396;2023-08-17T05:56:14;5.33;;;2.43;;
73296;SDS011;61524;50.938;11.396;2023-08-17T05:58:39;4.83;;;2.30;;
73296;SDS011;61524;50.938;11.396;2023-08-17T06:01:05;4.80;;;2.70;;
73296;SDS011;61524;50.938;11.396;2023-08-17T06:03:31;6.78;;;2.60;;
73296;SDS011;61524;50.938;11.396;2023-08-17T06:05:56;4.23;;;2.47;;
73296;SDS011;61524;50.938;11.396;2023-08-17T06:08:21;4.77;;;2.43;;
73296;SDS011;61524;50.938;11.396;2023-08-17T06:10:47;5.30;;;2.43;;
73296;SDS011;61524;50.938;11.396;2023-08-17T06:13:12;9.23;;;2.60;;
73296;SDS011;61524;50.938;11.396;2023-08-17T06:15:37;4.80;;;2.33;;
73296;SDS011;61524;50.938;11.396;2023-08-17T06:18:02;4.27;;;1.80;;
73296;SDS011;61524;50.938;11.396;2023-08-17T06:20:28;4.20;;;2.35;;
73296;SDS011;61524;50.938;11.396;2023-08-17T06:22:53;4.20;;;2.23;;
73296;SDS011;61524;50.938;11.396;2023-08-17T06:25:18;4.33;;;2.37;;
73296;SDS011;61524;50.938;11.396;2023-08-17T06:27:44;4.20;;;2.22;;
73296;SDS011;61524;50.938;11.396;2023-08-17T06:30:09;3.60;;;2.10;;
73296;SDS011;61524;50.938;11.396;2023-08-17T06:32:35;3.45;;;1.85;;
73296;SDS011;61524;50.938;11.396;2023-08-17T06:35:00;4.47;;;1.80;;
73296;SDS011;61524;50.938;11.396;2023-08-17T06:37:25;5.07;;;2.28;;
73296;SDS011;61524;50.938;11.396;2023-08-17T06:39:51;4.30;;;2.20;;
73296;SDS011;61524;50.938;11.396;2023-08-17T06:42:16;4.60;;;2.20;;
73296;SDS011;61524;50.938;11.396;2023-08-17T06:44:41;4.53;;;2.40;;
73296;SDS011;61524;50.938;11.396;2023-08-17T06:47:06;3.97;;;2.17;;
73296;SDS011;61524;50.938;11.396;2023-08-17T06:49:32;4.70;;;2.60;;
73296;SDS011;61524;50.938;11.396;2023-08-17T06:51:57;7.00;;;2.50;;
73296;SDS011;61524;50.938;11.396;2023-08-17T06:54:22;4.30;;;2.60;;
73296;SDS011;61524;50.938;11.396;2023-08-17T06:56:48;4.63;;;2.57;;
73296;SDS011;61524;50.938;11.396;2023-08-17T06:59:13;3.38;;;2.25;;
73296;SDS011;61524;50.938;11.396;2023-08-17T07:01:38;5.25;;;2.17;;
73296;SDS011;61524;50.938;11.396;2023-08-17T07:04:03;3.57;;;2.20;;
73296;SDS011;61524;50.938;11.396;2023-08-17T07:06:29;3.72;;;2.05;;
73296;SDS011;61524;50.938;11.396;2023-08-17T07:08:54;5.50;;;2.50;;
73296;SDS011;61524;50.938;11.396;2023-08-17T07:11:19;4.83;;;2.50;;
73296;SDS011;61524;50.938;11.396;2023-08-17T07:13:45;3.58;;;2.00;;
73296;SDS011;61524;50.938;11.396;2023-08-17T07:16:10;6.57;;;2.43;;
73296;SDS011;61524;50.938;11.396;2023-08-17T07:18:35;3.63;;;2.00;;
73296;SDS011;61524;50.938;11.396;2023-08-17T07:21:01;4.63;;;2.10;;
73296;SDS011;61524;50.938;11.396;2023-08-17T07:23:26;4.97;;;1.63;;
73296;SDS011;61524;50.938;11.396;2023-08-17T07:25:51;4.47;;;2.07;;
73296;SDS011;61524;50.938;11.396;2023-08-17T07:28:16;3.50;;;1.77;;
73296;SDS011;61524;50.938;11.396;2023-08-17T07:30:42;5.33;;;2.43;;
73296;SDS011;61524;50.938;11.396;2023-08-17T07:33:07;4.37;;;2.20;;
73296;SDS011;61524;50.938;11.396;2023-08-17T07:35:32;3.03;;;1.90;;
73296;SDS011;61524;50.938;11.396;2023-08-17T07:37:57;3.50;;;1.77;;
73296;SDS011;61524;50.938;11.396;2023-08-17T07:40:23;3.67;;;2.00;;
73296;SDS011;61524;50.938;11.396;2023-08-17T07:42:48;3.20;;;1.43;;
73296;SDS011;61524;50.938;11.396;2023-08-17T07:45:13;4.30;;;1.70;;
73296;SDS011;61524;50.938;11.396;2023-08-17T07:47:38;4.80;;;1.80;;
73296;SDS011;61524;50.938;11.396;2023-08-17T07:50:04;3.77;;;2.10;;
73296;SDS011;61524;50.938;11.396;2023-08-17T07:52:30;3.92;;;2.00;;
73296;SDS011;61524;50.938;11.396;2023-08-17T07:54:55;4.65;;;2.17;;
73296;SDS011;61524;50.938;11.396;2023-08-17T07:57:20;4.85;;;2.17;;
73296;SDS011;61524;50.938;11.396;2023-08-17T07:59:46;3.80;;;2.20;;
73296;SDS011;61524;50.938;11.396;2023-08-17T08:02:11;4.47;;;2.20;;
73296;SDS011;61524;50.938;11.396;2023-08-17T08:04:36;4.00;;;1.95;;
73296;SDS011;61524;50.938;11.396;2023-08-17T08:07:01;3.90;;;2.27;;
73296;SDS011;61524;50.938;11.396;2023-08-17T08:09:27;3.90;;;1.80;;
73296;SDS011;61524;50.938;11.396;2023-08-17T08:11:52;4.70;;;1.83;;
73296;SDS011;61524;50.938;11.396;2023-08-17T08:14:17;4.80;;;1.92;;
73296;SDS011;61524;50.938;11.396;2023-08-17T08:16:42;4.70;;;2.07;;
73296;SDS011;61524;50.938;11.396;2023-08-17T08:19:08;3.60;;;1.93;;
73296;SDS011;61524;50.938;11.396;2023-08-17T08:21:33;4.37;;;1.80;;
73296;SDS011;61524;50.938;11.396;2023-08-17T08:23:58;4.73;;;2.23;;
73296;SDS011;61524;50.938;11.396;2023-08-17T08:26:24;3.50;;;1.75;;
73296;SDS011;61524;50.938;11.396;2023-08-17T08:28:49;4.75;;;1.98;;
73296;SDS011;61524;50.938;11.396;2023-08-17T08:31:14;4.60;;;2.60;;
73296;SDS011;61524;50.938;11.396;2023-08-17T08:33:39;4.23;;;1.90;;
73296;SDS011;61524;50.938;11.396;2023-08-17T08:36:05;4.33;;;2.37;;
73296;SDS011;61524;50.938;11.396;2023-08-17T08:40:56;4.22;;;2.30;;
73296;SDS011;61524;50.938;11.396;2023-08-17T08:43:22;4.50;;;2.13;;
73296;SDS011;61524;50.938;11.396;2023-08-17T08:45:47;4.23;;;2.37;;
73296;SDS011;61524;50.938;11.396;2023-08-17T08:48:14;3.80;;;2.38;;
73296;SDS011;61524;50.938;11.396;2023-08-17T08:50:40;5.40;;;2.60;;
73296;SDS011;61524;50.938;11.396;2023-08-17T08:53:27;4.20;;;2.58;;
73296;SDS011;61524;50.938;11.396;2023-08-17T08:55:57;4.70;;;2.42;;
73296;SDS011;61524;50.938;11.396;2023-08-17T08:58:23;5.18;;;2.22;;
73296;SDS011;61524;50.938;11.396;2023-08-17T09:03:15;3.60;;;2.30;;
73296;SDS011;61524;50.938;11.396;2023-08-17T09:05:44;4.65;;;2.90;;
73296;SDS011;61524;50.938;11.396;2023-08-17T09:08:09;4.75;;;2.47;;
73296;SDS011;61524;50.938;11.396;2023-08-17T09:10:36;4.03;;;2.70;;
73296;SDS011;61524;50.938;11.396;2023-08-17T09:13:02;3.95;;;2.42;;
73296;SDS011;61524;50.938;11.396;2023-08-17T09:15:28;4.00;;;2.70;;
73296;SDS011;61524;50.938;11.396;2023-08-17T09:17:53;4.23;;;2.60;;
73296;SDS011;61524;50.938;11.396;2023-08-17T09:23:12;4.88;;;2.65;;
73296;SDS011;61524;50.938;11.396;2023-08-17T09:25:40;4.55;;;2.80;;
73296;SDS011;61524;50.938;11.396;2023-08-17T09:28:06;3.95;;;2.55;;
73296;SDS011;61524;50.938;11.396;2023-08-17T09:30:33;4.70;;;2.75;;
73296;SDS011;61524;50.938;11.396;2023-08-17T09:33:01;4.50;;;3.03;;
73296;SDS011;61524;50.938;11.396;2023-08-17T09:35:26;5.10;;;3.03;;
73296;SDS011;61524;50.938;11.396;2023-08-17T09:37:56;4.07;;;2.63;;
73296;SDS011;61524;50.938;11.396;2023-08-17T09:40:25;7.60;;;3.63;;
73296;SDS011;61524;50.938;11.396;2023-08-17T09:42:51;4.57;;;3.03;;
73296;SDS011;61524;50.938;11.396;2023-08-17T09:45:17;5.95;;;3.28;;
73296;SDS011;61524;50.938;11.396;2023-08-17T09:47:42;6.13;;;3.55;;
73296;SDS011;61524;50.938;11.396;2023-08-17T09:50:08;4.73;;;3.47;;
73296;SDS011;61524;50.938;11.396;2023-08-17T09:52:38;6.85;;;3.50;;
73296;SDS011;61524;50.938;11.396;2023-08-17T09:55:03;5.05;;;3.22;;
73296;SDS011;61524;50.938;11.396;2023-08-17T09:57:29;5.68;;;3.50;;
73296;SDS011;61524;50.938;11.396;2023-08-17T09:59:54;4.93;;;3.40;;
73296;SDS011;61524;50.938;11.396;2023-08-17T10:02:21;5.67;;;3.80;;
73296;SDS011;61524;50.938;11.396;2023-08-17T10:04:49;5.22;;;3.50;;
73296;SDS011;61524;50.938;11.396;2023-08-17T10:07:15;5.18;;;3.55;;
73296;SDS011;61524;50.938;11.396;2023-08-17T10:09:43;5.55;;;3.60;;
73296;SDS011;61524;50.938;11.396;2023-08-17T10:12:12;6.15;;;3.97;;
73296;SDS011;61524;50.938;11.396;2023-08-17T10:14:39;5.55;;;3.90;;
73296;SDS011;61524;50.938;11.396;2023-08-17T10:17:11;5.53;;;3.95;;
73296;SDS011;61524;50.938;11.396;2023-08-17T10:22:11;9.20;;;4.25;;
73296;SDS011;61524;50.938;11.396;2023-08-17T10:24:38;5.65;;;4.43;;
73296;SDS011;61524;50.938;11.396;2023-08-17T10:27:04;6.05;;;3.83;;
73296;SDS011;61524;50.938;11.396;2023-08-17T10:29:30;8.48;;;4.43;;
73296;SDS011;61524;50.938;11.396;2023-08-17T10:31:56;6.95;;;4.13;;
73296;SDS011;61524;50.938;11.396;2023-08-17T10:34:22;6.30;;;4.38;;
73296;SDS011;61524;50.938;11.396;2023-08-17T10:36:47;6.03;;;3.97;;
73296;SDS011;61524;50.938;11.396;2023-08-17T10:41:48;5.50;;;3.83;;
73296;SDS011;61524;50.938;11.396;2023-08-17T10:44:14;8.82;;;3.97;;
73296;SDS011;61524;50.938;11.396;2023-08-17T10:46:39;6.38;;;4.30;;
73296;SDS011;61524;50.938;11.396;2023-08-17T10:49:06;6.35;;;4.40;;
73296;SDS011;61524;50.938;11.396;2023-08-17T10:51:32;6.05;;;4.50;;
73296;SDS011;61524;50.938;11.396;2023-08-17T10:54:06;6.80;;;4.65;;
73296;SDS011;61524;50.938;11.396;2023-08-17T10:56:32;6.07;;;4.70;;
73296;SDS011;61524;50.938;11.396;2023-08-17T10:59:01;6.93;;;4.55;;
73296;SDS011;61524;50.938;11.396;2023-08-17T11:01:36;7.70;;;5.13;;
73296;SDS011;61524;50.938;11.396;2023-08-17T11:04:08;7.60;;;5.00;;
73296;SDS011;61524;50.938;11.396;2023-08-17T11:06:33;7.13;;;5.38;;
73296;SDS011;61524;50.938;11.396;2023-08-17T11:09:05;7.15;;;5.38;;
73296;SDS011;61524;50.938;11.396;2023-08-17T11:11:30;7.13;;;4.78;;
73296;SDS011;61524;50.938;11.396;2023-08-17T11:13:56;6.10;;;5.03;;
73296;SDS011;61524;50.938;11.396;2023-08-17T11:16:22;5.82;;;4.90;;
73296;SDS011;61524;50.938;11.396;2023-08-17T11:18:48;7.43;;;5.15;;
73296;SDS011;61524;50.938;11.396;2023-08-17T11:21:14;6.70;;;4.93;;
73296;SDS011;61524;50.938;11.396;2023-08-17T11:23:40;9.23;;;5.18;;
73296;SDS011;61524;50.938;11.396;2023-08-17T11:26:06;7.05;;;5.38;;
73296;SDS011;61524;50.938;11.396;2023-08-17T11:31:07;6.43;;;5.45;;
73296;SDS011;61524;50.938;11.396;2023-08-17T11:33:33;9.00;;;5.28;;
73296;SDS011;61524;50.938;11.396;2023-08-17T11:35:59;5.72;;;4.68;;
73296;SDS011;61524;50.938;11.396;2023-08-17T11:38:25;5.68;;;4.70;;
73296;SDS011;61524;50.938;11.396;2023-08-17T11:40:50;5.97;;;4.63;;
73296;SDS011;61524;50.938;11.396;2023-08-17T11:43:16;5.70;;;4.70;;
73296;SDS011;61524;50.938;11.396;2023-08-17T11:45:42;7.13;;;4.47;;
73296;SDS011;61524;50.938;11.396;2023-08-17T11:48:07;7.60;;;5.03;;
73296;SDS011;61524;50.938;11.396;2023-08-17T11:50:34;6.82;;;4.80;;
73296;SDS011;61524;50.938;11.396;2023-08-17T11:52:59;6.40;;;4.93;;
73296;SDS011;61524;50.938;11.396;2023-08-17T11:55:25;7.38;;;4.88;;
73296;SDS011;61524;50.938;11.396;2023-08-17T11:57:51;8.10;;;5.63;;
73296;SDS011;61524;50.938;11.396;2023-08-17T12:00:17;7.37;;;5.40;;
73296;SDS011;61524;50.938;11.396;2023-08-17T12:02:43;7.00;;;5.25;;
73296;SDS011;61524;50.938;11.396;2023-08-17T12:05:11;7.30;;;5.78;;
73296;SDS011;61524;50.938;11.396;2023-08-17T12:07:36;8.73;;;5.90;;
73296;SDS011;61524;50.938;11.396;2023-08-17T12:10:02;8.00;;;5.22;;
73296;SDS011;61524;50.938;11.396;2023-08-17T12:12:28;6.80;;;5.55;;
73296;SDS011;61524;50.938;11.396;2023-08-17T12:14:54;7.43;;;5.90;;
73296;SDS011;61524;50.938;11.396;2023-08-17T12:17:19;7.18;;;5.00;;
73296;SDS011;61524;50.938;11.396;2023-08-17T12:19:48;7.10;;;5.22;;
73296;SDS011;61524;50.938;11.396;2023-08-17T12:22:14;6.25;;;4.57;;
73296;SDS011;61524;50.938;11.396;2023-08-17T12:24:39;8.05;;;5.55;;
73296;SDS011;61524;50.938;11.396;2023-08-17T12:27:05;6.27;;;4.83;;
73296;SDS011;61524;50.938;11.396;2023-08-17T12:29:30;7.53;;;4.90;;
73296;SDS011;61524;50.938;11.396;2023-08-17T12:31:59;8.30;;;5.05;;
73296;SDS011;61524;50.938;11.396;2023-08-17T12:34:25;6.22;;;5.18;;
73296;SDS011;61524;50.938;11.396;2023-08-17T12:36:51;7.00;;;5.75;;
73296;SDS011;61524;50.938;11.396;2023-08-17T12:39:16;8.80;;;4.97;;
73296;SDS011;61524;50.938;11.396;2023-08-17T12:41:41;7.38;;;5.72;;
73296;SDS011;61524;50.938;11.396;2023-08-17T12:44:08;8.23;;;5.30;;
73296;SDS011;61524;50.938;11.396;2023-08-17T12:46:34;6.50;;;5.22;;
73296;SDS011;61524;50.938;11.396;2023-08-17T12:48:59;7.72;;;5.35;;
73296;SDS011;61524;50.938;11.396;2023-08-17T12:51:25;10.77;;;5.60;;
73296;SDS011;61524;50.938;11.396;2023-08-17T12:53:50;7.20;;;5.70;;
73296;SDS011;61524;50.938;11.396;2023-08-17T12:56:15;6.15;;;5.18;;
73296;SDS011;61524;50.938;11.396;2023-08-17T12:58:41;8.52;;;5.38;;
73296;SDS011;61524;50.938;11.396;2023-08-17T13:01:06;6.53;;;5.03;;
73296;SDS011;61524;50.938;11.396;2023-08-17T13:03:31;6.77;;;5.60;;
73296;SDS011;61524;50.938;11.396;2023-08-17T13:05:56;6.47;;;5.33;;
73296;SDS011;61524;50.938;11.396;2023-08-17T13:08:22;8.43;;;5.32;;
73296;SDS011;61524;50.938;11.396;2023-08-17T13:10:47;7.50;;;5.07;;
73296;SDS011;61524;50.938;11.396;2023-08-17T13:13:12;6.37;;;4.97;;
73296;SDS011;61524;50.938;11.396;2023-08-17T13:15:38;8.17;;;5.53;;
73296;SDS011;61524;50.938;11.396;2023-08-17T13:18:03;6.57;;;5.43;;
73296;SDS011;61524;50.938;11.396;2023-08-17T13:20:28;7.40;;;5.70;;
73296;SDS011;61524;50.938;11.396;2023-08-17T13:22:54;8.93;;;5.73;;
73296;SDS011;61524;50.938;11.396;2023-08-17T13:25:19;7.30;;;5.93;;
73296;SDS011;61524;50.938;11.396;2023-08-17T13:27:44;6.90;;;5.30;;
73296;SDS011;61524;50.938;11.396;2023-08-17T13:30:10;6.60;;;5.90;;
73296;SDS011;61524;50.938;11.396;2023-08-17T13:32:35;8.02;;;5.40;;
73296;SDS011;61524;50.938;11.396;2023-08-17T13:35:01;7.32;;;5.45;;
73296;SDS011;61524;50.938;11.396;2023-08-17T13:37:27;9.93;;;5.80;;
73296;SDS011;61524;50.938;11.396;2023-08-17T13:39:53;7.10;;;5.65;;
73296;SDS011;61524;50.938;11.396;2023-08-17T13:42:18;8.32;;;5.45;;
73296;SDS011;61524;50.938;11.396;2023-08-17T13:44:43;7.43;;;5.93;;
73296;SDS011;61524;50.938;11.396;2023-08-17T13:47:09;8.48;;;5.32;;
73296;SDS011;61524;50.938;11.396;2023-08-17T13:49:35;6.78;;;5.63;;
73296;SDS011;61524;50.938;11.396;2023-08-17T13:52:00;7.63;;;6.25;;
73296;SDS011;61524;50.938;11.396;2023-08-17T13:54:25;8.48;;;5.25;;
73296;SDS011;61524;50.938;11.396;2023-08-17T13:56:51;9.07;;;6.07;;
73296;SDS011;61524;50.938;11.396;2023-08-17T13:59:16;7.05;;;6.35;;
73296;SDS011;61524;50.938;11.396;2023-08-17T14:01:41;6.97;;;5.60;;
73296;SDS011;61524;50.938;11.396;2023-08-17T14:04:07;10.13;;;6.18;;
73296;SDS011;61524;50.938;11.396;2023-08-17T14:06:40;8.07;;;5.82;;
73296;SDS011;61524;50.938;11.396;2023-08-17T14:09:06;7.43;;;5.88;;
73296;SDS011;61524;50.938;11.396;2023-08-17T14:11:31;7.25;;;5.93;;
73296;SDS011;61524;50.938;11.396;2023-08-17T14:13:56;8.20;;;5.40;;
73296;SDS011;61524;50.938;11.396;2023-08-17T14:16:22;13.73;;;5.93;;
73296;SDS011;61524;50.938;11.396;2023-08-17T14:18:47;8.82;;;5.63;;
73296;SDS011;61524;50.938;11.396;2023-08-17T14:21:12;6.77;;;5.37;;
73296;SDS011;61524;50.938;11.396;2023-08-17T14:23:37;7.60;;;5.73;;
73296;SDS011;61524;50.938;11.396;2023-08-17T14:26:03;7.00;;;5.75;;
73296;SDS011;61524;50.938;11.396;2023-08-17T14:28:28;6.30;;;5.40;;
73296;SDS011;61524;50.938;11.396;2023-08-17T14:30:53;7.73;;;5.93;;
73296;SDS011;61524;50.938;11.396;2023-08-17T14:33:19;7.40;;;5.20;;
73296;SDS011;61524;50.938;11.396;2023-08-17T14:35:44;6.95;;;5.47;;
73296;SDS011;61524;50.938;11.396;2023-08-17T14:38:09;9.15;;;6.15;;
73296;SDS011;61524;50.938;11.396;2023-08-17T14:40:38;7.63;;;5.05;;
73296;SDS011;61524;50.938;11.396;2023-08-17T14:43:03;6.80;;;5.57;;
73296;SDS011;61524;50.938;11.396;2023-08-17T14:45:28;6.93;;;5.60;;
73296;SDS011;61524;50.938;11.396;2023-08-17T14:47:54;7.63;;;5.93;;